Atlanta, GA

10:19 AM EDT on September 03, 2015 (GMT -0400)
Chastain | | Change Station
CLOSE
Current Station
Personal Weather Station
Location: Atlanta, GA
Elevation: 905 ft
Nearby Weather Stations

Elev 905 ft 33.87 °N, 84.40 °W | Updated 28 seconds ago

Overcast
Overcast
78.3 °F
Feels Like 81 °F
N
0.2
Wind Variable Wind from NNE
Gusts 3.6 mph

Today
High -- | Low -- °F
--% Chance of Precip.
Yesterday
High -- | Low -- °F
Precip. -- in
7:12 AM 8:00 PM
Waning Gibbous, 70% visible
Pressure 29.97 in
Visibility 8.0 miles
Clouds Scattered Clouds 6000 ft
Heat Index 81 °F
Dew Point 72 °F
Humidity 80%
Rainfall 0.00 in
Snow Depth Not available.
UV 2.0 out of 12
Pollen 8.90 out of 12
Air Quality Not available.
Flu Activity Not available.
METAR KPDK 031353Z 32008KT 8SM SCT060 26/22 A3002 RMK AO2 SLP149 T02610222
Pressure 29.97 in
Visibility 8.0 miles
Clouds Scattered Clouds 6000 ft
Heat Index 81 °F
Dew Point 72 °F
Humidity 80%
Rainfall 0.00 in
Snow Depth Not available.
UV 2.0 out of 12
Pollen 8.90 out of 12
Air Quality Not available.
Flu Activity Not available.
METAR KPDK 031353Z 32008KT 8SM SCT060 26/22 A3002 RMK AO2 SLP149 T02610222

10-Day Weather Forecast

×

Almanac

Astronomy

Sep. 03, 2015 Rise Set
Actual Time
Civil Twilight
Nautical Twilight
Astronomical Twilight
Moon
Length of Visible Light
Length of Day
Tomorrow will be .
, % of the Moon is Illuminated

Today's Extremes

State Highs State Lows

Community

WunderPhotos

Upload Photos

1,851,959 photos uploaded!

WunderBlogs® & News

Nearby

Air Quality

  Air Quality AQ Index Pollutant
Not available.

Snow Depth

Station Depth Elevation

Earthquake Activity

City Distance Mag. Time & Date
Minimum magnitude displayed is 2.5.

Coastal Water Temperatures

Place Temperature

Stations

Nearby Weather Stations

Station Location Temp. Windchill Dew Point Humidity Wind Precip. Elev Updated Type